Time;durP1;ratioP1;P1;durP2;ratioP2;P2;SDS_P1;SDS_P2;PMS_P1;PMS_P2;Temp;Humidity;BMP_temperature;BMP_pressure;BME280_temperature;BME280_humidity;BME280_pressure;Samples;Min_cycle;Max_cycle;Signal;HPM_P1;HPM_P2
2022/10/15 00:00:06;;;;;;;3.15;1.17;;;;;;;18.85;60.44;98647.72;5092784;28;20035;-44
2022/10/15 00:02:32;;;;;;;8.93;1.45;;;;;;;18.89;60.54;98638.97;5092801;28;20039;-44
2022/10/15 00:04:58;;;;;;;9.23;1.73;;;;;;;19.06;60.29;98654.00;5092676;28;20028;-44
2022/10/15 00:07:24;;;;;;;4.32;1.17;;;;;;;19.10;60.24;98644.47;5092629;28;20509;-44
2022/10/15 00:09:50;;;;;;;2.40;1.00;;;;;;;19.17;60.06;98647.69;5092332;28;20024;-44
2022/10/15 00:12:16;;;;;;;3.65;1.20;;;;;;;19.36;59.94;98651.50;5092509;28;20024;-44
2022/10/15 00:14:41;;;;;;;4.07;1.33;;;;;;;19.45;60.06;98646.50;5092542;28;20059;-44
2022/10/15 00:17:07;;;;;;;5.10;1.10;;;;;;;19.66;59.44;98658.03;5092531;28;20445;-44
2022/10/15 00:19:33;;;;;;;6.40;1.60;;;;;;;19.66;59.13;98655.38;5092272;28;20409;-44
2022/10/15 00:21:59;;;;;;;5.57;1.35;;;;;;;19.83;59.34;98657.06;5092417;28;20099;-44
2022/10/15 00:24:24;;;;;;;8.88;1.60;;;;;;;20.04;58.39;98666.72;5074237;28;20028;-44
2022/10/15 00:26:50;;;;;;;4.30;1.10;;;;;;;20.12;57.96;98668.06;5092336;28;20024;-44
2022/10/15 00:29:16;;;;;;;2.92;1.45;;;;;;;20.03;57.82;98656.31;5092339;28;20070;-44
2022/10/15 00:31:41;;;;;;;8.73;1.85;;;;;;;20.00;58.87;98667.50;5090881;28;20028;-44
2022/10/15 00:34:08;;;;;;;10.15;1.30;;;;;;;20.11;58.12;98663.81;5092254;28;20099;-44
2022/10/15 00:36:35;;;;;;;5.97;1.95;;;;;;;20.33;58.94;98666.25;5092181;28;20020;-44
2022/10/15 00:39:03;;;;;;;3.40;1.10;;;;;;;20.41;57.30;98660.38;5092174;28;20375;-45
2022/10/15 00:41:49;;;;;;;5.85;1.83;;;;;;;20.19;58.28;98663.28;5092094;28;20036;-45
2022/10/15 00:44:21;;;;;;;3.53;1.23;;;;;;;20.26;57.58;98669.16;5090329;28;20048;-45
2022/10/15 00:47:13;;;;;;;2.58;1.25;;;;;;;19.99;57.88;98661.38;5090712;28;20055;-45
2022/10/15 00:49:43;;;;;;;3.78;1.50;;;;;;;19.90;57.86;98660.25;5092120;28;20096;-44
2022/10/15 00:52:24;;;;;;;1.50;1.00;;;;;;;19.84;57.79;98661.31;5091966;28;20103;-44
2022/10/15 00:55:14;;;;;;;1.75;1.20;;;;;;;19.70;57.65;98656.47;5091982;28;20028;-44
2022/10/15 00:57:41;;;;;;;6.13;1.70;;;;;;;19.39;58.81;98646.72;5091471;28;20040;-44
2022/10/15 01:00:10;;;;;;;4.30;1.40;;;;;;;19.23;59.45;98643.19;5091867;28;20074;-44
2022/10/15 01:02:36;;;;;;;4.22;1.70;;;;;;;19.04;60.12;98643.63;5073700;28;20032;-44
2022/10/15 01:05:03;;;;;;;5.05;2.53;;;;;;;18.81;60.70;98642.13;5091859;28;20344;-44
2022/10/15 01:07:28;;;;;;;4.00;1.23;;;;;;;18.69;61.51;98636.16;5092085;28;20386;-45
2022/10/15 01:09:54;;;;;;;4.32;1.92;;;;;;;18.56;62.00;98640.84;5090420;28;20038;-44
2022/10/15 01:12:37;;;;;;;2.08;1.35;;;;;;;18.45;62.70;98641.00;5090468;28;20041;-45
2022/10/15 01:15:14;;;;;;;4.65;1.40;;;;;;;18.39;63.16;98634.88;5090475;28;20452;-44
2022/10/15 01:18:13;;;;;;;3.15;1.65;;;;;;;18.40;63.31;98631.16;5091817;28;20024;-44
2022/10/15 01:21:16;;;;;;;7.25;3.10;;;;;;;18.44;62.97;98628.78;5081595;28;20043;-44
2022/10/15 01:24:26;;;;;;;5.78;3.92;;;;;;;18.39;62.75;98618.94;5095843;28;20024;-44
2022/10/15 01:27:17;;;;;;;3.28;1.77;;;;;;;18.34;62.47;98624.97;5095815;28;20028;-44
2022/10/15 01:29:46;;;;;;;5.05;1.52;;;;;;;18.21;62.88;98625.41;5094478;28;20028;-44
2022/10/15 01:32:22;;;;;;;6.53;1.30;;;;;;;18.24;63.15;98622.22;5094284;28;20035;-44
2022/10/15 01:35:24;;;;;;;1.90;1.20;;;;;;;18.32;62.73;98613.00;5094510;28;20035;-44
2022/10/15 01:38:09;;;;;;;2.42;1.08;;;;;;;18.22;62.86;98616.38;5095643;28;20074;-44
2022/10/15 01:41:04;;;;;;;6.25;1.00;;;;;;;18.27;63.84;98618.25;5095657;28;20034;-44
2022/10/15 01:43:45;;;;;;;4.10;1.10;;;;;;;18.53;63.56;98606.81;5095037;28;20036;-44
2022/10/15 01:46:23;;;;;;;3.70;1.38;;;;;;;18.51;63.08;98608.09;5095793;28;20059;-44
2022/10/15 01:48:52;;;;;;;4.75;1.63;;;;;;;18.48;64.37;98596.13;5094215;28;20366;-44
2022/10/15 01:51:20;;;;;;;3.70;1.63;;;;;;;18.50;64.25;98585.25;5095279;28;20035;-44
2022/10/15 01:53:46;;;;;;;5.45;1.52;;;;;;;18.65;64.81;98590.69;5095254;28;20217;-44
2022/10/15 01:56:18;;;;;;;7.97;4.43;;;;;;;18.77;64.55;98577.19;5095210;28;20398;-44
2022/10/15 01:58:48;;;;;;;4.32;3.50;;;;;;;19.00;62.57;98583.22;5095234;28;20028;-44
2022/10/15 02:01:14;;;;;;;7.93;5.95;;;;;;;18.70;62.50;98582.72;5095110;28;20032;-45
2022/10/15 02:03:49;;;;;;;6.22;2.33;;;;;;;18.32;63.08;98575.81;5093739;28;20020;-44
2022/10/15 02:06:40;;;;;;;6.50;1.35;;;;;;;18.19;63.26;98581.53;5095385;28;20035;-44
2022/10/15 02:09:41;;;;;;;2.15;1.27;;;;;;;18.24;63.97;98578.94;5095054;28;20039;-44
2022/10/15 02:12:38;;;;;;;2.58;1.05;;;;;;;18.42;63.23;98575.88;5094768;28;20035;-44
2022/10/15 02:15:22;;;;;;;7.07;1.58;;;;;;;18.50;63.36;98572.75;5094920;28;20134;-46
2022/10/15 02:18:14;;;;;;;3.95;1.40;;;;;;;18.63;62.60;98581.34;5093512;28;20043;-44
2022/10/15 02:20:58;;;;;;;3.95;1.00;;;;;;;18.40;61.98;98566.56;5093518;28;20039;-44
2022/10/15 02:23:53;;;;;;;5.03;1.13;;;;;;;18.16;62.74;98569.56;5094817;28;20027;-44
2022/10/15 02:26:24;;;;;;;3.08;1.48;;;;;;;18.21;63.49;98572.28;5092770;28;20130;-44
2022/10/15 02:28:53;;;;;;;2.67;1.20;;;;;;;18.44;63.58;98567.66;5094672;28;20032;-44
2022/10/15 02:31:22;;;;;;;39.42;35.97;;;;;;;18.52;63.07;98564.53;5092688;28;20078;-44
2022/10/15 02:33:50;;;;;;;1.92;1.73;;;;;;;18.43;61.98;98564.22;5094764;28;20098;-44
2022/10/15 02:36:18;;;;;;;5.55;2.20;;;;;;;18.15;62.37;98568.78;5093153;28;20524;-44
2022/10/15 02:38:45;;;;;;;5.28;1.48;;;;;;;17.91;63.17;98570.16;5093122;28;20031;-44
2022/10/15 02:41:12;;;;;;;7.43;1.42;;;;;;;17.78;64.93;98558.03;5093028;28;20032;-44
2022/10/15 02:43:39;;;;;;;9.00;1.48;;;;;;;18.10;64.76;98559.94;5093018;28;20024;-44
2022/10/15 02:46:07;;;;;;;2.13;1.10;;;;;;;18.22;63.59;98567.75;5094305;28;20048;-44
2022/10/15 02:48:33;;;;;;;4.53;1.58;;;;;;;17.89;63.55;98565.09;5094221;28;20020;-44
2022/10/15 02:50:59;;;;;;;4.07;1.75;;;;;;;17.82;64.53;98555.69;5092815;28;20028;-44
2022/10/15 02:53:24;;;;;;;1.42;1.08;;;;;;;17.87;63.65;98559.22;5092817;28;20028;-44
2022/10/15 02:55:50;;;;;;;3.17;1.58;;;;;;;17.91;64.44;98557.66;5092783;28;20466;-44
2022/10/15 02:58:16;;;;;;;3.50;2.08;;;;;;;17.96;63.21;98559.56;5092731;28;20024;-44
2022/10/15 03:00:41;;;;;;;4.85;2.00;;;;;;;17.81;63.48;98559.38;5092656;28;20062;-44
2022/10/15 03:03:07;;;;;;;2.08;1.35;;;;;;;17.73;63.24;98555.34;5094004;28;20028;-44
2022/10/15 03:05:34;;;;;;;3.15;1.10;;;;;;;17.62;63.31;98546.44;5093865;28;20020;-44
2022/10/15 03:08:00;;;;;;;2.15;1.33;;;;;;;17.53;63.75;98550.63;5093793;28;20028;-44
2022/10/15 03:10:26;;;;;;;4.13;1.35;;;;;;;17.51;63.73;98556.16;5093766;28;20043;-44
2022/10/15 03:12:51;;;;;;;1.52;0.90;;;;;;;17.46;63.93;98557.94;5093677;28;20086;-44
2022/10/15 03:15:17;;;;;;;2.70;1.42;;;;;;;17.41;64.24;98542.00;5093728;28;20056;-44
2022/10/15 03:17:43;;;;;;;5.88;1.60;;;;;;;17.48;64.16;98540.72;5093677;28;20028;-44
2022/10/15 03:20:08;;;;;;;2.03;1.30;;;;;;;17.59;63.84;98539.00;5092096;28;20055;-44
2022/10/15 03:22:34;;;;;;;2.03;1.10;;;;;;;17.53;63.63;98547.97;5093569;28;20032;-44
2022/10/15 03:25:00;;;;;;;2.17;0.80;;;;;;;17.42;64.11;98548.88;5093575;28;20100;-44
2022/10/15 03:27:25;;;;;;;3.08;1.00;;;;;;;17.30;64.18;98554.31;5093468;28;20016;-44
2022/10/15 03:29:51;;;;;;;5.78;1.20;;;;;;;17.21;64.69;98542.56;5092079;28;20035;-44
2022/10/15 03:32:17;;;;;;;5.22;1.05;;;;;;;17.21;64.69;98551.31;5093433;28;20107;-44
2022/10/15 03:34:42;;;;;;;3.40;0.90;;;;;;;17.21;64.90;98556.59;5093386;28;20103;-44
2022/10/15 03:37:08;;;;;;;5.40;1.50;;;;;;;17.45;65.28;98566.97;5093339;28;20497;-44
2022/10/15 03:39:34;;;;;;;6.10;1.27;;;;;;;17.94;64.73;98554.50;5093203;28;20028;-44
2022/10/15 03:41:59;;;;;;;7.10;1.40;;;;;;;18.21;63.58;98556.34;5093223;28;20016;-44
2022/10/15 03:44:25;;;;;;;2.58;1.23;;;;;;;18.08;63.20;98562.84;5092419;28;20574;-44
2022/10/15 03:46:51;;;;;;;7.47;1.38;;;;;;;18.16;63.28;98557.06;5091750;28;20024;-44
2022/10/15 03:49:16;;;;;;;3.35;1.10;;;;;;;18.16;62.49;98557.06;5093050;28;20051;-44
2022/10/15 03:51:42;;;;;;;4.70;1.33;;;;;;;18.00;62.13;98560.66;5091676;28;20095;-44
2022/10/15 03:54:08;;;;;;;5.00;1.20;;;;;;;17.80;62.83;98555.13;5091754;28;20023;-44
2022/10/15 03:56:34;;;;;;;1.83;0.90;;;;;;;17.71;63.20;98557.44;5092991;28;20455;-44
2022/10/15 03:58:59;;;;;;;3.47;1.20;;;;;;;17.66;63.42;98555.50;5091661;28;20028;-44
2022/10/15 04:01:25;;;;;;;4.68;1.60;;;;;;;17.69;64.01;98555.03;5092869;28;20027;-44
2022/10/15 04:03:52;;;;;;;24.80;22.63;;;;;;;18.07;63.79;98548.00;5092795;28;20047;-44
2022/10/15 04:06:18;;;;;;;53.67;48.78;;;;;;;18.41;63.52;98547.72;5091414;28;20024;-44
2022/10/15 04:08:44;;;;;;;4.45;1.55;;;;;;;18.34;61.56;98550.59;5091392;28;20028;-44
2022/10/15 04:11:10;;;;;;;4.53;1.60;;;;;;;17.91;61.90;98549.69;5091360;28;20020;-44
2022/10/15 04:13:35;;;;;;;4.00;1.02;;;;;;;17.56;62.78;98537.63;5091297;28;20458;-44
2022/10/15 04:16:04;;;;;;;5.43;1.30;;;;;;;17.31;63.65;98550.63;5092534;28;20106;-44
2022/10/15 04:18:30;;;;;;;4.55;1.20;;;;;;;17.03;64.74;98546.31;5092233;28;20028;-44
2022/10/15 04:21:00;;;;;;;6.15;1.63;;;;;;;16.81;66.75;98556.84;5091361;28;20413;-44
2022/10/15 04:23:26;;;;;;;4.57;1.38;;;;;;;16.70;66.65;98550.59;5092494;28;20502;-44
2022/10/15 04:25:52;;;;;;;4.68;1.10;;;;;;;16.77;67.06;98545.94;5092417;28;20081;-44
2022/10/15 04:28:17;;;;;;;5.20;1.20;;;;;;;16.82;66.38;98548.69;5092389;28;20450;-44
2022/10/15 04:30:43;;;;;;;3.85;1.42;;;;;;;16.77;67.74;98540.63;5091039;28;20074;-44
2022/10/15 04:33:09;;;;;;;5.25;1.27;;;;;;;16.79;67.18;98543.84;5091305;28;20080;-44
2022/10/15 04:35:35;;;;;;;4.95;1.25;;;;;;;16.76;66.76;98547.78;5092245;28;20375;-44
2022/10/15 04:38:01;;;;;;;2.58;1.10;;;;;;;16.72;66.21;98548.50;5090959;28;20039;-44
2022/10/15 04:40:27;;;;;;;6.20;1.75;;;;;;;16.70;66.09;98546.09;5090802;28;20028;-44
2022/10/15 04:42:53;;;;;;;3.25;2.20;;;;;;;16.67;66.10;98543.13;5090847;28;20020;-44
2022/10/15 04:45:18;;;;;;;2.30;2.10;;;;;;;16.67;66.51;98543.94;5092161;28;20394;-44
2022/10/15 04:47:44;;;;;;;6.38;1.83;;;;;;;16.74;66.02;98549.06;5091957;28;20119;-44
2022/10/15 04:50:10;;;;;;;5.05;2.00;;;;;;;16.74;66.13;98544.56;5092001;28;20028;-44
2022/10/15 04:52:36;;;;;;;6.82;1.20;;;;;;;16.87;65.90;98535.50;5092044;28;20024;-44
2022/10/15 04:55:03;;;;;;;1.40;0.88;;;;;;;17.07;65.49;98539.47;5091852;28;20103;-44
2022/10/15 04:57:30;;;;;;;8.25;1.88;;;;;;;17.09;65.44;98542.66;5091927;28;20035;-44
2022/10/15 04:59:56;;;;;;;7.82;1.50;;;;;;;17.30;65.04;98544.50;5091925;28;20085;-44
2022/10/15 05:02:22;;;;;;;8.52;1.38;;;;;;;17.49;64.93;98541.53;5090613;28;20027;-44
2022/10/15 05:04:48;;;;;;;2.67;1.42;;;;;;;17.64;64.06;98540.91;5091880;28;20080;-44
2022/10/15 05:07:13;;;;;;;8.60;1.70;;;;;;;17.65;63.53;98543.31;5090585;28;20028;-44
2022/10/15 05:09:40;;;;;;;8.35;1.40;;;;;;;17.71;63.73;98547.63;5091863;28;20012;-44
2022/10/15 05:12:05;;;;;;;8.23;1.52;;;;;;;17.86;64.02;98549.63;5091642;28;20035;-44
2022/10/15 05:14:31;;;;;;;8.68;2.20;;;;;;;17.88;63.07;98552.06;5091778;28;20051;-44
2022/10/15 05:16:57;;;;;;;49.05;44.30;;;;;;;17.82;63.37;98547.72;5091745;28;20031;-44
2022/10/15 05:19:22;;;;;;;19.77;17.85;;;;;;;17.71;62.77;98546.81;5091468;28;20413;-44
2022/10/15 05:21:48;;;;;;;21.98;17.60;;;;;;;17.74;63.68;98557.72;5091808;28;20050;-44
2022/10/15 05:24:14;;;;;;;14.23;12.23;;;;;;;17.93;63.32;98560.88;5090511;28;20024;-44
2022/10/15 05:26:39;;;;;;;6.65;2.28;;;;;;;17.83;62.37;98551.97;5091646;28;20056;-44
2022/10/15 05:29:05;;;;;;;14.77;3.80;;;;;;;17.55;63.25;98559.13;5090352;28;20028;-44
2022/10/15 05:31:33;;;;;;;4.28;1.20;;;;;;;17.35;63.58;98551.75;5090207;28;20020;-44
2022/10/15 05:34:04;;;;;;;9.27;2.67;;;;;;;17.36;64.54;98558.63;5091875;28;20374;-44
2022/10/15 05:36:30;;;;;;;6.85;3.03;;;;;;;17.63;63.89;98566.66;5091653;28;20528;-44
2022/10/15 05:39:00;;;;;;;7.65;1.98;;;;;;;17.76;63.63;98560.94;5091614;28;20028;-44
2022/10/15 05:41:28;;;;;;;8.70;2.47;;;;;;;17.74;63.51;98564.88;5090225;28;20028;-44
2022/10/15 05:43:55;;;;;;;5.38;1.70;;;;;;;17.89;63.38;98570.38;5091498;28;20047;-44
2022/10/15 05:46:21;;;;;;;10.75;1.90;;;;;;;17.91;62.82;98564.84;5091478;28;20018;-44
2022/10/15 05:48:48;;;;;;;6.38;1.50;;;;;;;17.83;62.54;98567.88;5090216;28;20032;-44
2022/10/15 05:51:14;;;;;;;12.77;4.22;;;;;;;17.54;62.65;98571.56;5091369;28;20039;-44
2022/10/15 05:53:42;;;;;;;8.35;2.05;;;;;;;17.27;63.37;98578.69;5091394;28;20020;-44
2022/10/15 05:56:08;;;;;;;16.10;2.60;;;;;;;16.89;64.00;98581.09;5091463;28;20044;-44
2022/10/15 05:58:35;;;;;;;5.32;2.00;;;;;;;16.62;65.03;98580.16;5090087;28;20031;-44
2022/10/15 06:01:03;;;;;;;8.23;1.77;;;;;;;16.47;65.98;98580.72;5091362;28;20050;-44
2022/10/15 06:03:29;;;;;;;9.10;2.25;;;;;;;16.57;66.20;98584.31;5089999;28;20518;-44
2022/10/15 06:05:55;;;;;;;6.18;2.35;;;;;;;16.49;65.79;98566.19;5091394;28;20020;-44
2022/10/15 06:08:21;;;;;;;5.50;1.90;;;;;;;16.30;65.68;98570.13;5095021;28;20028;-44
2022/10/15 06:10:47;;;;;;;3.58;1.92;;;;;;;16.38;66.94;98575.81;5094839;28;20123;-44
2022/10/15 06:13:14;;;;;;;5.90;1.67;;;;;;;16.63;66.87;98577.25;5094959;28;20555;-44
2022/10/15 06:15:41;;;;;;;7.82;2.13;;;;;;;16.87;65.77;98577.91;5093590;28;20031;-44
2022/10/15 06:18:08;;;;;;;7.32;2.22;;;;;;;17.25;65.43;98572.84;5094799;28;20481;-44
2022/10/15 06:20:34;;;;;;;6.22;1.80;;;;;;;17.49;64.29;98566.22;5093219;28;20151;-44
2022/10/15 06:23:00;;;;;;;7.00;1.70;;;;;;;17.66;64.05;98568.00;5094791;28;20095;-44
2022/10/15 06:25:27;;;;;;;7.28;1.60;;;;;;;17.83;63.42;98567.88;5093356;28;20078;-44
2022/10/15 06:27:53;;;;;;;10.23;1.85;;;;;;;18.04;62.73;98577.69;5094695;28;20078;-44
2022/10/15 06:30:19;;;;;;;10.18;1.83;;;;;;;18.23;62.40;98574.66;5094514;28;20035;-44
2022/10/15 06:32:52;;;;;;;6.18;2.00;;;;;;;18.18;61.42;98575.44;5094619;28;20064;-44
2022/10/15 06:35:21;;;;;;;17.20;2.00;;;;;;;18.37;62.30;98575.84;5094465;28;20042;-44
2022/10/15 06:37:47;;;;;;;5.80;2.10;;;;;;;18.99;60.82;98577.09;5094466;28;20414;-44
2022/10/15 06:40:13;;;;;;;12.63;1.98;;;;;;;19.25;59.88;98588.66;5094456;28;20089;-44
2022/10/15 06:42:39;;;;;;;12.88;2.40;;;;;;;19.47;59.29;98585.03;5094371;28;20028;-44
2022/10/15 06:45:06;;;;;;;8.80;3.33;;;;;;;19.66;58.63;98588.81;5094267;28;20024;-45
2022/10/15 06:47:32;;;;;;;8.70;2.22;;;;;;;19.83;58.11;98583.28;5093009;28;20027;-44
2022/10/15 06:49:57;;;;;;;6.07;2.33;;;;;;;19.95;57.67;98580.38;5094181;28;20024;-44
2022/10/15 06:52:24;;;;;;;4.68;1.88;;;;;;;19.93;57.08;98579.84;5094180;28;20544;-45
2022/10/15 06:54:50;;;;;;;5.60;1.75;;;;;;;19.61;57.46;98580.81;5092816;28;20039;-44
2022/10/15 06:57:15;;;;;;;7.28;1.52;;;;;;;19.16;57.70;98592.88;5094069;28;20021;-44
2022/10/15 06:59:41;;;;;;;15.93;2.70;;;;;;;18.68;59.52;98600.81;5094309;28;20102;-44
2022/10/15 07:02:10;;;;;;;9.15;1.92;;;;;;;18.51;60.22;98600.13;5094001;28;20546;-44
2022/10/15 07:04:35;;;;;;;10.55;1.77;;;;;;;18.40;60.97;98599.25;5093900;28;20099;-44
2022/10/15 07:07:01;;;;;;;12.55;3.38;;;;;;;18.48;61.14;98605.97;5093873;28;20561;-44
2022/10/15 07:09:27;;;;;;;12.32;2.17;;;;;;;18.62;61.33;98609.78;5094132;28;20044;-44
2022/10/15 07:11:52;;;;;;;7.70;2.50;;;;;;;18.77;60.87;98598.44;5093735;28;20065;-44
2022/10/15 07:14:18;;;;;;;18.17;2.83;;;;;;;18.94;59.88;98604.47;5093765;28;20031;-44
2022/10/15 07:16:44;;;;;;;9.77;1.60;;;;;;;18.98;59.57;98604.75;5093802;28;20020;-44
2022/10/15 07:19:09;;;;;;;9.07;1.73;;;;;;;18.99;59.70;98598.34;5090892;28;20040;-44
2022/10/15 07:21:35;;;;;;;7.70;1.90;;;;;;;19.06;59.49;98598.94;5093605;28;20028;-44
2022/10/15 07:24:01;;;;;;;8.90;2.58;;;;;;;19.02;59.79;98600.53;5093623;28;20059;-44
2022/10/15 07:26:29;;;;;;;4.72;1.88;;;;;;;19.05;60.36;98600.00;5093493;28;20112;-44
2022/10/15 07:28:56;;;;;;;13.63;2.22;;;;;;;19.20;60.21;98607.28;5092177;28;20093;-44
2022/10/15 07:31:23;;;;;;;6.68;1.83;;;;;;;19.41;59.90;98600.16;5093320;28;20028;-44
2022/10/15 07:33:48;;;;;;;9.35;2.42;;;;;;;19.62;59.46;98593.06;5093408;28;20016;-44
2022/10/15 07:36:14;;;;;;;10.95;3.05;;;;;;;19.74;58.44;98599.00;5093354;28;20089;-45
2022/10/15 07:38:40;;;;;;;4.70;2.05;;;;;;;19.57;58.73;98601.03;5091973;28;20024;-44
2022/10/15 07:41:09;;;;;;;5.45;1.92;;;;;;;19.54;58.70;98598.91;5091903;28;20036;-45
2022/10/15 07:43:35;;;;;;;6.28;2.05;;;;;;;19.74;58.98;98598.19;5091936;28;20016;-44
2022/10/15 07:46:01;;;;;;;8.38;1.98;;;;;;;20.09;58.40;98589.47;5093395;28;20055;-44
2022/10/15 07:48:27;;;;;;;4.10;1.65;;;;;;;20.36;57.11;98596.41;5093116;28;20048;-44
2022/10/15 07:50:57;;;;;;;11.18;2.22;;;;;;;20.52;57.27;98592.69;5091674;28;20528;-44
2022/10/15 07:53:23;;;;;;;12.95;2.47;;;;;;;20.81;56.46;98589.47;5091711;28;20138;-44
2022/10/15 07:55:50;;;;;;;14.15;2.45;;;;;;;21.04;55.93;98589.94;5092981;28;20028;-44
2022/10/15 07:58:16;;;;;;;4.88;1.92;;;;;;;21.17;55.53;98600.06;5092908;28;20421;-44
2022/10/15 08:00:41;;;;;;;7.32;1.92;;;;;;;21.35;54.74;98596.00;5092810;28;20039;-44
2022/10/15 08:03:07;;;;;;;8.88;2.00;;;;;;;21.34;54.57;98599.72;5091560;28;20103;-44
2022/10/15 08:05:34;;;;;;;3.33;1.35;;;;;;;21.20;55.18;98604.84;5092777;28;20028;-44
2022/10/15 08:07:59;;;;;;;9.75;2.33;;;;;;;21.15;55.49;98604.88;5091570;28;20024;-45
2022/10/15 08:10:25;;;;;;;5.75;2.10;;;;;;;21.57;55.41;98593.00;5092619;28;20043;-44
2022/10/15 08:12:51;;;;;;;10.93;2.25;;;;;;;22.45;53.20;98588.69;5091351;28;20028;-44
2022/10/15 08:15:17;;;;;;;5.20;1.88;;;;;;;23.31;51.23;98598.81;5091287;28;20785;-45
2022/10/15 08:17:43;;;;;;;4.93;1.83;;;;;;;24.51;48.35;98606.56;5091285;28;20025;-45
2022/10/15 08:20:10;;;;;;;6.70;1.92;;;;;;;25.05;47.03;98619.56;5090855;28;20553;-45
2022/10/15 08:22:35;;;;;;;6.53;1.80;;;;;;;25.68;46.01;98613.50;5092540;28;20028;-45
2022/10/15 08:25:01;;;;;;;4.15;1.50;;;;;;;26.84;43.76;98604.91;5092399;28;20042;-45
2022/10/15 08:27:27;;;;;;;10.07;1.95;;;;;;;28.10;41.38;98610.78;5091055;28;20020;-45
2022/10/15 08:29:52;;;;;;;3.97;1.40;;;;;;;29.02;38.90;98610.44;5092017;28;20027;-45
2022/10/15 08:32:18;;;;;;;11.35;1.80;;;;;;;28.75;38.87;98600.84;5092283;28;20020;-45
2022/10/15 08:34:44;;;;;;;2.95;1.10;;;;;;;28.75;38.35;98605.44;5092337;28;20486;-45
2022/10/15 08:37:09;;;;;;;5.45;1.52;;;;;;;28.94;37.80;98605.88;5092261;28;20099;-45
2022/10/15 08:39:35;;;;;;;5.93;1.85;;;;;;;28.95;38.22;98593.94;5092202;28;20063;-45
2022/10/15 08:42:04;;;;;;;8.40;1.70;;;;;;;29.29;37.47;98592.22;5092148;28;20020;-45
2022/10/15 08:44:39;;;;;;;6.43;1.70;;;;;;;29.37;37.18;98596.00;5090941;28;20027;-45
2022/10/15 08:47:12;;;;;;;13.70;2.40;;;;;;;30.18;36.35;98589.34;5092263;28;20043;-45
2022/10/15 08:49:47;;;;;;;6.15;1.52;;;;;;;31.02;35.18;98580.22;5092166;28;20036;-45
2022/10/15 08:52:45;;;;;;;12.95;1.83;;;;;;;31.68;34.22;98578.34;5090749;28;20055;-45
2022/10/15 08:55:19;;;;;;;4.53;1.65;;;;;;;32.34;32.92;98575.16;5085997;28;20471;-45
2022/10/15 08:57:44;;;;;;;;;;;;;;;33.03;33.38;98578.44;5092494;28;20063;-46
2022/10/15 09:00:17;;;;;;;14.25;2.03;;;;;;;33.35;31.54;98575.72;5091937;28;20382;-46
2022/10/15 09:03:05;;;;;;;14.38;2.15;;;;;;;33.83;30.54;98576.38;5092010;28;20024;-46
2022/10/15 09:05:33;;;;;;;8.90;2.00;;;;;;;34.00;29.59;98575.13;5090594;28;20375;-46
2022/10/15 09:08:17;;;;;;;6.15;1.98;;;;;;;34.32;28.82;98572.25;5091945;28;20024;-46
2022/10/15 09:10:51;;;;;;;8.15;1.80;;;;;;;34.96;28.13;98574.53;5090657;28;20405;-45
2022/10/15 09:13:29;;;;;;;8.13;1.65;;;;;;;35.26;27.40;98580.06;5091887;28;20044;-46
2022/10/15 09:16:13;;;;;;;6.00;1.50;;;;;;;35.43;27.16;98575.22;5091848;28;20417;-46
2022/10/15 09:18:43;;;;;;;19.75;4.65;;;;;;;35.08;28.21;98581.72;5091600;28;20059;-46
2022/10/15 09:21:12;;;;;;;7.25;2.72;;;;;;;34.39;28.57;98579.75;5091974;28;20032;-46
2022/10/15 09:23:40;;;;;;;3.95;1.80;;;;;;;33.83;28.92;98578.31;5091947;28;20446;-46
2022/10/15 09:26:11;;;;;;;7.95;1.60;;;;;;;33.46;29.43;98580.59;5090451;28;20020;-46
2022/10/15 09:28:59;;;;;;;6.40;1.52;;;;;;;33.86;29.65;98576.78;5091734;28;20099;-46
2022/10/15 09:31:33;;;;;;;3.70;2.85;;;;;;;34.76;28.17;98565.63;5091587;28;20047;-46
2022/10/15 09:34:45;;;;;;;6.95;1.75;;;;;;;35.28;27.78;98558.66;5091944;28;20036;-46
2022/10/15 09:37:24;;;;;;;7.05;1.92;;;;;;;35.52;27.16;98565.59;5048980;28;20044;-46
2022/10/15 09:40:19;;;;;;;5.22;1.15;;;;;;;35.57;26.98;98564.47;5049215;28;20573;-46
2022/10/15 09:42:48;;;;;;;9.65;1.58;;;;;;;36.00;26.01;98567.78;5052128;28;20074;-46
2022/10/15 09:45:14;;;;;;;6.00;0.70;;;;;;;36.28;24.50;98564.56;5052814;28;20049;-46
2022/10/15 09:47:42;;;;;;;4.82;1.02;;;;;;;36.67;24.04;98569.63;5036234;28;20021;-46
2022/10/15 09:50:11;;;;;;;4.32;0.93;;;;;;;36.94;23.58;98566.69;5036025;28;20107;-46
2022/10/15 09:53:07;;;;;;;3.13;0.90;;;;;;;36.92;23.93;98567.06;5052897;28;20573;-46
2022/10/15 09:55:51;;;;;;;6.55;1.13;;;;;;;36.51;24.27;98556.19;5036150;28;20115;-46
2022/10/15 09:58:29;;;;;;;6.00;1.53;;;;;;;36.49;24.58;98555.00;5052812;28;20107;-46
2022/10/15 10:01:01;;;;;;;5.22;1.00;;;;;;;36.12;25.46;98556.56;5052739;28;20036;-46
2022/10/15 10:03:30;;;;;;;2.22;0.50;;;;;;;35.96;23.62;98551.34;5052697;28;20192;-46
2022/10/15 10:06:23;;;;;;;1.35;0.50;;;;;;;35.63;23.96;98543.09;5052596;28;20044;-46
2022/10/15 10:08:58;;;;;;;1.45;0.68;;;;;;;35.27;23.26;98534.47;5049366;28;20044;-46
2022/10/15 10:11:26;;;;;;;3.67;0.52;;;;;;;34.15;24.46;98543.56;5077665;28;20087;-46
2022/10/15 10:13:59;;;;;;;1.50;0.45;;;;;;;33.62;25.18;98552.22;5093668;28;20031;-46
2022/10/15 10:16:25;;;;;;;0.73;0.40;;;;;;;33.29;25.62;98552.66;5094930;28;20020;-46
2022/10/15 10:19:14;;;;;;;1.00;0.50;;;;;;;33.47;25.55;98547.59;5093571;28;20406;-46
2022/10/15 10:21:42;;;;;;;1.65;0.47;;;;;;;33.65;25.27;98549.94;5093507;28;20031;-46
2022/10/15 10:24:33;;;;;;;1.88;0.65;;;;;;;33.78;25.52;98554.84;5094787;28;20047;-46
2022/10/15 10:27:01;;;;;;;3.20;0.73;;;;;;;34.32;25.19;98555.13;5094701;28;20021;-46
2022/10/15 10:29:28;;;;;;;1.08;0.70;;;;;;;34.99;23.82;98558.22;5094716;28;20051;-46
2022/10/15 10:31:54;;;;;;;1.88;0.60;;;;;;;35.00;23.50;98550.81;5093245;28;20064;-46
2022/10/15 10:34:29;;;;;;;5.43;1.05;;;;;;;35.07;23.77;98553.63;5093238;28;20051;-46
2022/10/15 10:36:55;;;;;;;4.95;0.80;;;;;;;35.29;24.16;98556.69;5094592;28;20089;-46
2022/10/15 10:39:28;;;;;;;2.13;0.70;;;;;;;35.79;23.52;98555.41;5093248;28;20028;-46
2022/10/15 10:42:03;;;;;;;3.63;0.73;;;;;;;36.38;22.88;98544.75;5093111;28;20046;-46
2022/10/15 10:44:31;;;;;;;1.80;0.70;;;;;;;36.71;22.59;98548.56;5093147;28;20379;-46
2022/10/15 10:47:15;;;;;;;4.93;1.13;;;;;;;36.79;22.55;98546.69;5092984;28;20401;-46
2022/10/15 10:49:47;;;;;;;1.35;0.43;;;;;;;36.73;21.75;98551.72;5093030;28;20055;-46
2022/10/15 10:52:29;;;;;;;2.80;0.88;;;;;;;36.95;22.59;98546.41;5092436;28;20383;-46
2022/10/15 10:55:29;;;;;;;1.42;0.68;;;;;;;36.70;22.46;98548.94;5094169;28;20016;-46
2022/10/15 10:57:56;;;;;;;1.60;0.47;;;;;;;36.09;21.34;98540.91;5077115;28;20089;-46
2022/10/15 11:00:37;;;;;;;1.70;0.45;;;;;;;35.31;22.93;98557.13;5094060;28;20023;-46
2022/10/15 11:03:04;;;;;;;2.85;0.70;;;;;;;35.17;22.88;98552.25;5094098;28;20032;-46
2022/10/15 11:05:37;;;;;;;4.93;0.80;;;;;;;35.16;22.71;98553.41;5093927;28;20095;-46
2022/10/15 11:08:21;;;;;;;2.58;0.85;;;;;;;34.40;23.28;98549.44;5094068;28;20443;-46
2022/10/15 11:10:58;;;;;;;0.95;0.32;;;;;;;33.69;23.84;98551.59;5093782;28;20023;-46
2022/10/15 11:13:30;;;;;;;0.65;0.20;;;;;;;33.30;24.16;98558.88;5093932;28;20055;-46
2022/10/15 11:16:05;;;;;;;5.95;0.82;;;;;;;33.01;25.30;98550.03;5093787;28;20021;-46
2022/10/15 11:18:42;;;;;;;0.60;0.35;;;;;;;32.68;25.34;98545.78;5093521;28;20406;-46
2022/10/15 11:21:41;;;;;;;1.17;0.38;;;;;;;33.07;24.68;98553.28;5093677;28;20035;-46
2022/10/15 11:24:28;;;;;;;6.78;1.13;;;;;;;32.79;25.64;98535.16;5093927;28;20032;-46
2022/10/15 11:27:12;;;;;;;1.15;0.52;;;;;;;32.91;25.49;98523.41;5093584;28;20032;-46
2022/10/15 11:30:30;;;;;;;1.95;0.55;;;;;;;32.97;25.50;98516.56;5092258;28;20118;-45
2022/10/15 11:32:56;;;;;;;3.70;0.40;;;;;;;32.84;25.41;98524.81;5031062;28;20120;-45
2022/10/15 11:35:43;;;;;;;2.30;0.40;;;;;;;32.82;25.46;98520.84;5014461;28;20455;-46
2022/10/15 11:38:28;;;;;;;1.80;0.50;;;;;;;32.64;25.69;98525.88;5030964;28;20045;-45
2022/10/15 11:41:15;;;;;;;3.40;0.45;;;;;;;32.21;26.20;98514.69;5030900;28;20404;-45
2022/10/15 11:44:17;;;;;;;2.15;0.50;;;;;;;32.21;26.16;98505.75;5014346;28;20041;-46
2022/10/15 11:46:54;;;;;;;1.83;0.50;;;;;;;32.24;26.34;98495.00;5030890;28;20424;-46
2022/10/15 11:49:39;;;;;;;3.72;1.08;;;;;;;32.52;25.72;98494.13;5030835;28;20044;-46